createdAt,value
2018-08-13T00:04:02.373Z,21.77
2018-08-13T00:08:55.017Z,21.68
2018-08-13T00:13:47.573Z,21.65
2018-08-13T00:18:40.163Z,21.60
2018-08-13T00:23:32.764Z,21.52
2018-08-13T00:28:25.411Z,21.44
2018-08-13T00:33:18.006Z,21.37
2018-08-13T00:38:10.569Z,21.29
2018-08-13T00:43:03.475Z,21.24
2018-08-13T00:47:56.051Z,21.18
2018-08-13T00:52:48.654Z,21.15
2018-08-13T00:57:41.359Z,21.14
2018-08-13T01:02:33.960Z,21.13
2018-08-13T01:07:26.465Z,21.12
2018-08-13T01:12:19.034Z,21.10
2018-08-13T01:17:11.588Z,21.03
2018-08-13T01:22:04.170Z,20.96
2018-08-13T01:26:56.727Z,20.92
2018-08-13T01:31:49.318Z,20.86
2018-08-13T01:36:41.924Z,20.82
2018-08-13T01:41:34.485Z,20.73
2018-08-13T01:46:27.040Z,20.65
2018-08-13T01:51:19.619Z,20.54
2018-08-13T01:56:12.212Z,20.45
2018-08-13T02:01:04.781Z,20.42
2018-08-13T02:05:57.399Z,20.40
2018-08-13T02:10:50.015Z,20.32
2018-08-13T02:15:42.698Z,20.29
2018-08-13T02:20:35.284Z,20.21
2018-08-13T02:25:27.842Z,20.17
2018-08-13T02:30:20.470Z,20.15
2018-08-13T02:35:13.046Z,20.10
2018-08-13T02:40:07.238Z,20.08
2018-08-13T02:44:59.789Z,20.00
2018-08-13T02:49:52.379Z,19.92
2018-08-13T02:54:45.007Z,19.84
2018-08-13T02:59:37.640Z,19.78
2018-08-13T03:04:30.251Z,19.71
2018-08-13T03:09:22.875Z,19.68
2018-08-13T03:14:15.495Z,19.62
2018-08-13T03:19:08.305Z,19.62
2018-08-13T03:24:00.910Z,19.60
2018-08-13T03:28:53.485Z,19.51
2018-08-13T03:33:46.011Z,19.40
2018-08-13T03:38:38.475Z,19.39
2018-08-13T03:43:30.915Z,19.39
2018-08-13T03:48:23.379Z,19.37
2018-08-13T03:53:16.031Z,19.35
2018-08-13T03:58:08.653Z,19.30
2018-08-13T04:03:01.288Z,19.28
2018-08-13T04:07:53.939Z,19.21
2018-08-13T04:12:46.568Z,19.10
2018-08-13T04:17:39.179Z,19.09
2018-08-13T04:22:31.727Z,19.02
2018-08-13T04:27:24.492Z,18.98
2018-08-13T04:32:17.071Z,18.94
2018-08-13T04:37:09.719Z,18.95
2018-08-13T04:42:02.487Z,18.98
2018-08-13T04:46:55.111Z,19.07
2018-08-13T04:51:47.803Z,19.13
2018-08-13T04:56:40.367Z,19.18
2018-08-13T05:01:33.002Z,19.22
2018-08-13T05:06:25.578Z,19.28
2018-08-13T05:11:18.344Z,19.35
2018-08-13T05:16:11.010Z,19.43
2018-08-13T05:21:03.986Z,19.52
2018-08-13T05:25:56.554Z,19.61
2018-08-13T05:30:49.266Z,19.68
2018-08-13T05:35:41.912Z,19.73
2018-08-13T05:40:34.517Z,19.77
2018-08-13T05:45:27.156Z,19.78
2018-08-13T05:50:19.782Z,19.81
2018-08-13T05:55:13.460Z,19.83
2018-08-13T06:00:09.521Z,19.89
2018-08-13T06:05:02.227Z,19.94
2018-08-13T06:09:54.915Z,20.04
2018-08-13T06:14:47.556Z,20.14
2018-08-13T06:19:40.199Z,20.25
2018-08-13T06:24:33.220Z,20.32
2018-08-13T06:29:26.129Z,20.37
2018-08-13T06:34:18.963Z,20.45
2018-08-13T06:39:11.638Z,20.53
2018-08-13T06:44:04.392Z,20.62
2018-08-13T06:48:57.115Z,20.72
2018-08-13T06:53:49.772Z,20.86
2018-08-13T06:58:42.324Z,21.10
2018-08-13T07:03:34.903Z,21.80
2018-08-13T07:08:27.503Z,22.99
2018-08-13T07:13:20.091Z,24.20
2018-08-13T07:18:12.762Z,25.25
2018-08-13T07:23:05.535Z,26.32
2018-08-13T07:27:58.275Z,27.17
2018-08-13T07:32:50.906Z,27.80
2018-08-13T07:37:43.881Z,28.46
2018-08-13T07:42:36.518Z,29.07
2018-08-13T07:47:29.190Z,29.58
2018-08-13T07:52:21.899Z,29.94
2018-08-13T07:57:14.569Z,30.16
2018-08-13T08:02:07.229Z,30.19
2018-08-13T08:07:00.078Z,30.11
2018-08-13T08:11:52.725Z,30.04
2018-08-13T08:16:45.402Z,29.81
2018-08-13T08:21:38.006Z,29.55
2018-08-13T08:26:30.841Z,29.34
2018-08-13T08:31:23.488Z,29.25
2018-08-13T08:36:16.197Z,29.14
2018-08-13T08:41:09.034Z,29.04
2018-08-13T08:46:01.810Z,29.03
2018-08-13T08:50:54.477Z,29.08
2018-08-13T08:55:47.100Z,28.88
2018-08-13T09:00:40.120Z,28.39
2018-08-13T09:05:32.728Z,27.97
2018-08-13T09:10:25.406Z,28.08
2018-08-13T09:15:18.003Z,28.33
2018-08-13T09:20:28.185Z,28.61
2018-08-13T09:25:38.253Z,28.91
2018-08-13T09:31:16.464Z,29.13
2018-08-13T09:36:09.076Z,29.26
2018-08-13T09:41:01.819Z,29.40
2018-08-13T09:45:54.429Z,29.52
2018-08-13T09:50:47.056Z,29.64
2018-08-13T09:55:39.690Z,29.74
2018-08-13T10:00:38.064Z,29.76
2018-08-13T10:05:30.806Z,29.87
2018-08-13T10:10:23.416Z,29.93
2018-08-13T10:15:16.127Z,29.84
2018-08-13T10:20:18.214Z,29.93
2018-08-13T10:25:11.495Z,30.09
2018-08-13T10:30:07.099Z,30.29
2018-08-13T10:34:59.634Z,30.44
2018-08-13T10:39:52.279Z,30.61
2018-08-13T10:44:45.011Z,30.77
2018-08-13T10:49:37.672Z,30.75
2018-08-13T10:54:30.309Z,30.66
2018-08-13T10:59:22.930Z,30.74
2018-08-13T11:04:15.568Z,30.93
2018-08-13T11:09:09.664Z,31.03
2018-08-13T11:14:02.282Z,31.23
2018-08-13T11:18:54.935Z,31.40
2018-08-13T11:23:47.668Z,31.58
2018-08-13T11:28:40.446Z,31.79
2018-08-13T11:33:33.015Z,31.88
2018-08-13T11:38:25.710Z,31.99
2018-08-13T11:43:18.576Z,32.11
2018-08-13T11:48:11.296Z,32.36
2018-08-13T11:53:04.124Z,32.51
2018-08-13T11:57:56.692Z,32.39
2018-08-13T12:02:49.305Z,32.25
2018-08-13T12:07:42.346Z,32.28
2018-08-13T12:12:35.368Z,32.40
2018-08-13T12:17:28.162Z,32.49
2018-08-13T12:22:20.775Z,32.48
2018-08-13T12:27:13.711Z,32.47
2018-08-13T12:32:06.477Z,32.38
2018-08-13T12:37:05.069Z,32.40
2018-08-13T12:41:57.819Z,32.53
2018-08-13T12:46:50.496Z,32.81
2018-08-13T12:51:43.214Z,33.09
2018-08-13T12:56:35.713Z,33.40
2018-08-13T13:01:28.823Z,33.49
2018-08-13T13:06:21.447Z,33.43
2018-08-13T13:11:14.061Z,33.14
2018-08-13T13:16:06.686Z,33.00
2018-08-13T13:20:59.259Z,32.90
2018-08-13T13:25:52.163Z,32.82
2018-08-13T13:30:44.865Z,32.86
2018-08-13T13:35:37.657Z,32.92
2018-08-13T13:40:30.429Z,32.81
2018-08-13T13:45:23.150Z,32.72
2018-08-13T13:50:16.976Z,32.62
2018-08-13T13:55:09.654Z,32.67
2018-08-13T14:00:02.480Z,32.63
2018-08-13T14:04:55.144Z,32.59
2018-08-13T14:09:47.982Z,32.61
2018-08-13T14:14:40.678Z,32.59
2018-08-13T14:19:33.345Z,32.56
2018-08-13T14:24:25.963Z,32.49
2018-08-13T14:29:18.586Z,32.46
2018-08-13T14:34:11.169Z,32.41
2018-08-13T14:39:08.077Z,32.35
2018-08-13T14:44:00.706Z,32.29
2018-08-13T14:48:53.886Z,32.24
2018-08-13T14:53:46.637Z,32.10
2018-08-13T14:58:39.186Z,31.98
2018-08-13T15:03:31.754Z,31.89
2018-08-13T15:08:24.426Z,31.69
2018-08-13T15:13:17.057Z,31.58
2018-08-13T15:18:09.579Z,31.44
2018-08-13T15:23:02.269Z,31.12
2018-08-13T15:27:54.907Z,30.89
2018-08-13T15:32:48.486Z,30.73
2018-08-13T15:37:41.611Z,30.35
2018-08-13T15:42:34.659Z,30.13
2018-08-13T15:47:27.337Z,29.94
2018-08-13T15:52:20.083Z,29.82
2018-08-13T15:57:12.625Z,29.68
2018-08-13T16:02:05.228Z,29.56
2018-08-13T16:06:57.811Z,29.38
2018-08-13T16:11:50.401Z,29.27
2018-08-13T16:16:42.928Z,28.95
2018-08-13T16:21:35.445Z,28.80
2018-08-13T16:26:28.046Z,28.76
2018-08-13T16:31:20.573Z,28.48
2018-08-13T16:36:13.109Z,28.09
2018-08-13T16:41:05.818Z,28.02
2018-08-13T16:45:58.441Z,28.02
2018-08-13T16:50:51.029Z,28.01
2018-08-13T16:55:43.619Z,28.02
2018-08-13T17:00:36.109Z,27.95
2018-08-13T17:05:31.440Z,27.91
2018-08-13T17:10:26.149Z,27.76
2018-08-13T17:15:19.040Z,27.58
2018-08-13T17:20:14.514Z,27.49
2018-08-13T17:25:10.882Z,27.29
2018-08-13T17:30:06.797Z,27.33
2018-08-13T17:34:59.476Z,27.34
2018-08-13T17:39:52.109Z,27.36
2018-08-13T17:44:44.767Z,27.39
2018-08-13T17:49:37.422Z,27.41
2018-08-13T17:54:30.008Z,27.41
2018-08-13T17:59:22.631Z,27.40
2018-08-13T18:04:15.235Z,27.33
2018-08-13T18:09:10.174Z,27.24
2018-08-13T18:14:02.864Z,27.15
2018-08-13T18:18:55.397Z,26.92
2018-08-13T18:23:47.918Z,26.72
2018-08-13T18:28:40.524Z,26.42
2018-08-13T18:33:33.160Z,26.17
2018-08-13T18:38:25.767Z,25.97
2018-08-13T18:43:18.420Z,25.90
2018-08-13T18:48:11.035Z,25.83
2018-08-13T18:53:03.799Z,25.74
2018-08-13T18:57:56.398Z,25.66
2018-08-13T19:02:49.029Z,25.65
2018-08-13T19:07:42.599Z,25.73
2018-08-13T19:12:35.161Z,25.75
2018-08-13T19:17:27.684Z,25.76
2018-08-13T19:22:23.004Z,25.73
2018-08-13T19:27:15.546Z,25.57
2018-08-13T19:32:08.248Z,25.49
2018-08-13T19:37:00.926Z,25.46
2018-08-13T19:41:53.815Z,25.39
2018-08-13T19:46:46.449Z,25.42
2018-08-13T19:51:39.094Z,25.32
2018-08-13T19:56:31.715Z,25.14
2018-08-13T20:01:24.391Z,25.01
2018-08-13T20:06:16.972Z,24.85
2018-08-13T20:11:09.553Z,24.72
2018-08-13T20:16:02.132Z,24.61
2018-08-13T20:20:54.842Z,24.59
2018-08-13T20:25:47.455Z,24.58
2018-08-13T20:30:39.992Z,24.58
2018-08-13T20:35:32.464Z,24.51
2018-08-13T20:40:25.129Z,24.41
2018-08-13T20:45:19.407Z,24.36
2018-08-13T20:50:14.671Z,24.32
2018-08-13T20:55:12.568Z,24.28
2018-08-13T21:00:07.362Z,24.21
2018-08-13T21:04:59.909Z,24.16
2018-08-13T21:09:52.380Z,24.16
2018-08-13T21:14:44.799Z,24.11
2018-08-13T21:19:37.793Z,24.02
2018-08-13T21:24:30.578Z,23.88
2018-08-13T21:29:23.084Z,23.80
2018-08-13T21:34:15.637Z,23.70
2018-08-13T21:39:09.582Z,23.60
2018-08-13T21:44:02.449Z,23.55
2018-08-13T21:48:54.955Z,23.51
2018-08-13T21:53:47.527Z,23.49
2018-08-13T21:58:40.164Z,23.43
2018-08-13T22:03:32.681Z,23.35
2018-08-13T22:08:25.190Z,23.27
2018-08-13T22:13:17.783Z,23.20
2018-08-13T22:18:10.390Z,23.17
2018-08-13T22:23:04.225Z,23.15
2018-08-13T22:27:57.366Z,23.14
2018-08-13T22:32:49.982Z,23.09
2018-08-13T22:37:42.614Z,23.10
2018-08-13T22:42:35.206Z,23.11
2018-08-13T22:47:27.797Z,22.99
2018-08-13T22:52:20.422Z,22.96
2018-08-13T22:57:13.034Z,22.95
2018-08-13T23:02:05.639Z,22.88
2018-08-13T23:06:58.202Z,22.84
2018-08-13T23:11:50.800Z,22.74
2018-08-13T23:16:43.391Z,22.67
2018-08-13T23:21:35.959Z,22.59
2018-08-13T23:26:29.360Z,22.51
2018-08-13T23:31:21.932Z,22.45
2018-08-13T23:36:14.519Z,22.43
2018-08-13T23:41:07.208Z,22.36
2018-08-13T23:45:59.777Z,22.31
2018-08-13T23:50:52.493Z,22.28
2018-08-13T23:55:45.061Z,22.28
